sensor_id;sensor_type;location;lat;lon;timestamp;P1;P2;P0
47705;PMS5003;33471;52.104;1.318;2023-04-06T00:00:43;44;42;
47705;PMS5003;33471;52.104;1.318;2023-04-06T00:03:10;44;41;
47705;PMS5003;33471;52.104;1.318;2023-04-06T00:05:38;42;41;
47705;PMS5003;33471;52.104;1.318;2023-04-06T00:08:05;48;48;
47705;PMS5003;33471;52.104;1.318;2023-04-06T00:10:32;51;47;
47705;PMS5003;33471;52.104;1.318;2023-04-06T00:12:59;44;43;
47705;PMS5003;33471;52.104;1.318;2023-04-06T00:15:27;44;40;
47705;PMS5003;33471;52.104;1.318;2023-04-06T00:17:55;49;46;
47705;PMS5003;33471;52.104;1.318;2023-04-06T00:20:22;50;46;
47705;PMS5003;33471;52.104;1.318;2023-04-06T00:22:49;47;47;
47705;PMS5003;33471;52.104;1.318;2023-04-06T00:25:16;56;50;
47705;PMS5003;33471;52.104;1.318;2023-04-06T00:27:43;51;48;
47705;PMS5003;33471;52.104;1.318;2023-04-06T00:30:11;47;44;
47705;PMS5003;33471;52.104;1.318;2023-04-06T00:32:38;49;47;
47705;PMS5003;33471;52.104;1.318;2023-04-06T00:35:06;53;49;
47705;PMS5003;33471;52.104;1.318;2023-04-06T00:37:34;64;60;
47705;PMS5003;33471;52.104;1.318;2023-04-06T00:40:01;48;47;
47705;PMS5003;33471;52.104;1.318;2023-04-06T00:42:29;56;51;
47705;PMS5003;33471;52.104;1.318;2023-04-06T00:44:57;53;51;
47705;PMS5003;33471;52.104;1.318;2023-04-06T00:47:26;58;56;
47705;PMS5003;33471;52.104;1.318;2023-04-06T00:49:53;65;54;
47705;PMS5003;33471;52.104;1.318;2023-04-06T00:52:21;55;50;
47705;PMS5003;33471;52.104;1.318;2023-04-06T00:54:49;58;45;
47705;PMS5003;33471;52.104;1.318;2023-04-06T00:57:17;53;47;
47705;PMS5003;33471;52.104;1.318;2023-04-06T00:59:45;57;52;
47705;PMS5003;33471;52.104;1.318;2023-04-06T01:02:12;66;55;
47705;PMS5003;33471;52.104;1.318;2023-04-06T01:04:39;62;57;
47705;PMS5003;33471;52.104;1.318;2023-04-06T01:07:07;67;59;
47705;PMS5003;33471;52.104;1.318;2023-04-06T01:09:34;54;49;
47705;PMS5003;33471;52.104;1.318;2023-04-06T01:12:01;59;51;
47705;PMS5003;33471;52.104;1.318;2023-04-06T01:14:29;57;49;
47705;PMS5003;33471;52.104;1.318;2023-04-06T01:16:57;60;55;
47705;PMS5003;33471;52.104;1.318;2023-04-06T01:19:27;54;51;
47705;PMS5003;33471;52.104;1.318;2023-04-06T01:21:54;57;51;
47705;PMS5003;33471;52.104;1.318;2023-04-06T01:24:22;59;49;
47705;PMS5003;33471;52.104;1.318;2023-04-06T01:26:49;43;41;
47705;PMS5003;33471;52.104;1.318;2023-04-06T01:29:16;46;39;
47705;PMS5003;33471;52.104;1.318;2023-04-06T01:31:43;55;48;
47705;PMS5003;33471;52.104;1.318;2023-04-06T01:34:11;47;45;
47705;PMS5003;33471;52.104;1.318;2023-04-06T01:36:38;53;47;
47705;PMS5003;33471;52.104;1.318;2023-04-06T01:39:06;54;50;
47705;PMS5003;33471;52.104;1.318;2023-04-06T01:41:33;46;43;
47705;PMS5003;33471;52.104;1.318;2023-04-06T01:44:00;42;40;
47705;PMS5003;33471;52.104;1.318;2023-04-06T01:46:27;45;41;
47705;PMS5003;33471;52.104;1.318;2023-04-06T01:48:55;41;39;
47705;PMS5003;33471;52.104;1.318;2023-04-06T01:51:23;49;44;
47705;PMS5003;33471;52.104;1.318;2023-04-06T01:53:50;48;45;
47705;PMS5003;33471;52.104;1.318;2023-04-06T01:56:17;44;39;
47705;PMS5003;33471;52.104;1.318;2023-04-06T01:58:44;38;37;
47705;PMS5003;33471;52.104;1.318;2023-04-06T02:01:12;44;40;
47705;PMS5003;33471;52.104;1.318;2023-04-06T02:03:39;44;40;
47705;PMS5003;33471;52.104;1.318;2023-04-06T02:06:07;39;35;
47705;PMS5003;33471;52.104;1.318;2023-04-06T02:08:33;40;40;
47705;PMS5003;33471;52.104;1.318;2023-04-06T02:11:00;47;44;
47705;PMS5003;33471;52.104;1.318;2023-04-06T02:13:28;37;35;
47705;PMS5003;33471;52.104;1.318;2023-04-06T02:15:55;42;40;
47705;PMS5003;33471;52.104;1.318;2023-04-06T02:18:22;40;38;
47705;PMS5003;33471;52.104;1.318;2023-04-06T02:20:49;33;32;
47705;PMS5003;33471;52.104;1.318;2023-04-06T02:23:17;40;36;
47705;PMS5003;33471;52.104;1.318;2023-04-06T02:25:44;34;31;
47705;PMS5003;33471;52.104;1.318;2023-04-06T02:28:11;41;37;
47705;PMS5003;33471;52.104;1.318;2023-04-06T02:30:38;40;32;
47705;PMS5003;33471;52.104;1.318;2023-04-06T02:33:05;33;32;
47705;PMS5003;33471;52.104;1.318;2023-04-06T02:35:33;44;38;
47705;PMS5003;33471;52.104;1.318;2023-04-06T02:38:00;28;28;
47705;PMS5003;33471;52.104;1.318;2023-04-06T02:40:28;42;37;
47705;PMS5003;33471;52.104;1.318;2023-04-06T02:42:54;28;28;
47705;PMS5003;33471;52.104;1.318;2023-04-06T02:45:22;35;34;
47705;PMS5003;33471;52.104;1.318;2023-04-06T02:47:49;30;30;
47705;PMS5003;33471;52.104;1.318;2023-04-06T02:50:16;37;34;
47705;PMS5003;33471;52.104;1.318;2023-04-06T02:52:43;35;32;
47705;PMS5003;33471;52.104;1.318;2023-04-06T02:55:10;30;30;
47705;PMS5003;33471;52.104;1.318;2023-04-06T02:57:38;27;27;
47705;PMS5003;33471;52.104;1.318;2023-04-06T03:00:06;28;24;
47705;PMS5003;33471;52.104;1.318;2023-04-06T03:02:34;30;28;
47705;PMS5003;33471;52.104;1.318;2023-04-06T03:05:01;31;28;
47705;PMS5003;33471;52.104;1.318;2023-04-06T03:07:29;27;26;
47705;PMS5003;33471;52.104;1.318;2023-04-06T03:09:57;27;26;
47705;PMS5003;33471;52.104;1.318;2023-04-06T03:12:24;23;23;
47705;PMS5003;33471;52.104;1.318;2023-04-06T03:14:51;25;25;
47705;PMS5003;33471;52.104;1.318;2023-04-06T03:17:18;25;25;
47705;PMS5003;33471;52.104;1.318;2023-04-06T03:19:46;32;29;
47705;PMS5003;33471;52.104;1.318;2023-04-06T03:22:13;24;23;
47705;PMS5003;33471;52.104;1.318;2023-04-06T03:24:40;17;16;
47705;PMS5003;33471;52.104;1.318;2023-04-06T03:27:07;20;17;
47705;PMS5003;33471;52.104;1.318;2023-04-06T03:29:35;17;17;
47705;PMS5003;33471;52.104;1.318;2023-04-06T03:32:02;17;14;
47705;PMS5003;33471;52.104;1.318;2023-04-06T03:34:29;16;14;
47705;PMS5003;33471;52.104;1.318;2023-04-06T03:36:57;23;20;
47705;PMS5003;33471;52.104;1.318;2023-04-06T03:39:25;17;17;
47705;PMS5003;33471;52.104;1.318;2023-04-06T03:41:52;18;16;
47705;PMS5003;33471;52.104;1.318;2023-04-06T03:44:19;18;13;
47705;PMS5003;33471;52.104;1.318;2023-04-06T03:46:46;14;14;
47705;PMS5003;33471;52.104;1.318;2023-04-06T03:49:13;15;12;
47705;PMS5003;33471;52.104;1.318;2023-04-06T03:51:40;22;19;
47705;PMS5003;33471;52.104;1.318;2023-04-06T03:54:07;19;18;
47705;PMS5003;33471;52.104;1.318;2023-04-06T03:56:34;13;13;
47705;PMS5003;33471;52.104;1.318;2023-04-06T03:59:02;16;13;
47705;PMS5003;33471;52.104;1.318;2023-04-06T04:01:29;14;13;
47705;PMS5003;33471;52.104;1.318;2023-04-06T04:03:56;17;17;
47705;PMS5003;33471;52.104;1.318;2023-04-06T04:06:23;19;18;
47705;PMS5003;33471;52.104;1.318;2023-04-06T04:08:50;14;14;
47705;PMS5003;33471;52.104;1.318;2023-04-06T04:11:17;14;12;
47705;PMS5003;33471;52.104;1.318;2023-04-06T04:13:45;14;13;
47705;PMS5003;33471;52.104;1.318;2023-04-06T04:16:12;12;12;
47705;PMS5003;33471;52.104;1.318;2023-04-06T04:18:39;11;11;
47705;PMS5003;33471;52.104;1.318;2023-04-06T04:21:06;10;10;
47705;PMS5003;33471;52.104;1.318;2023-04-06T04:23:34;14;14;
47705;PMS5003;33471;52.104;1.318;2023-04-06T04:26:00;14;11;
47705;PMS5003;33471;52.104;1.318;2023-04-06T04:28:27;9;8;
47705;PMS5003;33471;52.104;1.318;2023-04-06T04:30:54;13;13;
47705;PMS5003;33471;52.104;1.318;2023-04-06T04:33:22;12;12;
47705;PMS5003;33471;52.104;1.318;2023-04-06T04:35:49;14;10;
47705;PMS5003;33471;52.104;1.318;2023-04-06T04:38:16;10;10;
47705;PMS5003;33471;52.104;1.318;2023-04-06T04:40:44;11;10;
47705;PMS5003;33471;52.104;1.318;2023-04-06T04:43:11;13;11;
47705;PMS5003;33471;52.104;1.318;2023-04-06T04:45:38;13;10;
47705;PMS5003;33471;52.104;1.318;2023-04-06T04:48:05;11;11;
47705;PMS5003;33471;52.104;1.318;2023-04-06T04:50:33;12;11;
47705;PMS5003;33471;52.104;1.318;2023-04-06T04:53:00;19;15;
47705;PMS5003;33471;52.104;1.318;2023-04-06T04:55:27;9;9;
47705;PMS5003;33471;52.104;1.318;2023-04-06T04:57:54;14;11;
47705;PMS5003;33471;52.104;1.318;2023-04-06T05:00:21;12;11;
47705;PMS5003;33471;52.104;1.318;2023-04-06T05:02:48;12;11;
47705;PMS5003;33471;52.104;1.318;2023-04-06T05:05:15;12;12;
47705;PMS5003;33471;52.104;1.318;2023-04-06T05:07:42;13;13;
47705;PMS5003;33471;52.104;1.318;2023-04-06T05:10:09;13;11;
47705;PMS5003;33471;52.104;1.318;2023-04-06T05:12:37;12;11;
47705;PMS5003;33471;52.104;1.318;2023-04-06T05:15:05;18;18;
47705;PMS5003;33471;52.104;1.318;2023-04-06T05:17:33;19;17;
47705;PMS5003;33471;52.104;1.318;2023-04-06T05:20:00;11;11;
47705;PMS5003;33471;52.104;1.318;2023-04-06T05:22:28;21;19;
47705;PMS5003;33471;52.104;1.318;2023-04-06T05:24:55;21;19;
47705;PMS5003;33471;52.104;1.318;2023-04-06T05:27:23;14;13;
47705;PMS5003;33471;52.104;1.318;2023-04-06T05:29:51;16;16;
47705;PMS5003;33471;52.104;1.318;2023-04-06T05:32:18;20;18;
47705;PMS5003;33471;52.104;1.318;2023-04-06T05:34:45;15;12;
47705;PMS5003;33471;52.104;1.318;2023-04-06T05:37:12;22;19;
47705;PMS5003;33471;52.104;1.318;2023-04-06T05:39:39;18;17;
47705;PMS5003;33471;52.104;1.318;2023-04-06T05:42:07;20;16;
47705;PMS5003;33471;52.104;1.318;2023-04-06T05:44:34;13;13;
47705;PMS5003;33471;52.104;1.318;2023-04-06T05:47:03;16;15;
47705;PMS5003;33471;52.104;1.318;2023-04-06T05:49:30;19;15;
47705;PMS5003;33471;52.104;1.318;2023-04-06T05:51:58;16;16;
47705;PMS5003;33471;52.104;1.318;2023-04-06T05:54:25;23;20;
47705;PMS5003;33471;52.104;1.318;2023-04-06T05:56:52;11;10;
47705;PMS5003;33471;52.104;1.318;2023-04-06T05:59:19;19;17;
47705;PMS5003;33471;52.104;1.318;2023-04-06T06:01:46;13;13;
47705;PMS5003;33471;52.104;1.318;2023-04-06T06:04:13;14;12;
47705;PMS5003;33471;52.104;1.318;2023-04-06T06:06:40;15;14;
47705;PMS5003;33471;52.104;1.318;2023-04-06T06:09:07;14;13;
47705;PMS5003;33471;52.104;1.318;2023-04-06T06:11:34;22;16;
47705;PMS5003;33471;52.104;1.318;2023-04-06T06:14:01;15;13;
47705;PMS5003;33471;52.104;1.318;2023-04-06T06:16:29;13;13;
47705;PMS5003;33471;52.104;1.318;2023-04-06T06:18:56;8;8;
47705;PMS5003;33471;52.104;1.318;2023-04-06T06:21:24;11;9;
47705;PMS5003;33471;52.104;1.318;2023-04-06T06:23:51;13;13;
47705;PMS5003;33471;52.104;1.318;2023-04-06T06:26:18;13;13;
47705;PMS5003;33471;52.104;1.318;2023-04-06T06:28:45;14;13;
47705;PMS5003;33471;52.104;1.318;2023-04-06T06:31:13;12;11;
47705;PMS5003;33471;52.104;1.318;2023-04-06T06:33:40;15;14;
47705;PMS5003;33471;52.104;1.318;2023-04-06T06:36:08;11;11;
47705;PMS5003;33471;52.104;1.318;2023-04-06T06:38:35;11;11;
47705;PMS5003;33471;52.104;1.318;2023-04-06T06:41:02;16;13;
47705;PMS5003;33471;52.104;1.318;2023-04-06T06:43:30;21;19;
47705;PMS5003;33471;52.104;1.318;2023-04-06T06:45:57;15;14;
47705;PMS5003;33471;52.104;1.318;2023-04-06T06:48:24;16;16;
47705;PMS5003;33471;52.104;1.318;2023-04-06T06:50:52;13;13;
47705;PMS5003;33471;52.104;1.318;2023-04-06T06:53:19;19;18;
47705;PMS5003;33471;52.104;1.318;2023-04-06T06:55:46;16;15;
47705;PMS5003;33471;52.104;1.318;2023-04-06T06:58:13;18;14;
47705;PMS5003;33471;52.104;1.318;2023-04-06T07:00:41;15;13;
47705;PMS5003;33471;52.104;1.318;2023-04-06T07:03:08;16;13;
47705;PMS5003;33471;52.104;1.318;2023-04-06T07:05:35;20;19;
47705;PMS5003;33471;52.104;1.318;2023-04-06T07:08:02;13;12;
47705;PMS5003;33471;52.104;1.318;2023-04-06T07:10:30;15;13;
47705;PMS5003;33471;52.104;1.318;2023-04-06T07:12:57;18;18;
47705;PMS5003;33471;52.104;1.318;2023-04-06T07:15:25;18;16;
47705;PMS5003;33471;52.104;1.318;2023-04-06T07:17:52;16;15;
47705;PMS5003;33471;52.104;1.318;2023-04-06T07:20:19;20;17;
47705;PMS5003;33471;52.104;1.318;2023-04-06T07:22:46;24;19;
47705;PMS5003;33471;52.104;1.318;2023-04-06T07:25:14;16;13;
47705;PMS5003;33471;52.104;1.318;2023-04-06T07:27:41;19;18;
47705;PMS5003;33471;52.104;1.318;2023-04-06T07:30:09;15;15;
47705;PMS5003;33471;52.104;1.318;2023-04-06T07:32:36;23;21;
47705;PMS5003;33471;52.104;1.318;2023-04-06T07:35:04;23;22;
47705;PMS5003;33471;52.104;1.318;2023-04-06T07:37:31;16;14;
47705;PMS5003;33471;52.104;1.318;2023-04-06T07:39:59;20;19;
47705;PMS5003;33471;52.104;1.318;2023-04-06T07:42:26;18;16;
47705;PMS5003;33471;52.104;1.318;2023-04-06T07:44:53;17;16;
47705;PMS5003;33471;52.104;1.318;2023-04-06T07:47:21;21;20;
47705;PMS5003;33471;52.104;1.318;2023-04-06T07:49:49;17;13;
47705;PMS5003;33471;52.104;1.318;2023-04-06T07:52:16;15;15;
47705;PMS5003;33471;52.104;1.318;2023-04-06T07:54:43;34;30;
47705;PMS5003;33471;52.104;1.318;2023-04-06T07:57:10;31;28;
47705;PMS5003;33471;52.104;1.318;2023-04-06T07:59:37;17;12;
47705;PMS5003;33471;52.104;1.318;2023-04-06T08:02:04;28;23;
47705;PMS5003;33471;52.104;1.318;2023-04-06T08:04:32;22;17;
47705;PMS5003;33471;52.104;1.318;2023-04-06T08:07:00;27;24;
47705;PMS5003;33471;52.104;1.318;2023-04-06T08:09:27;27;24;
47705;PMS5003;33471;52.104;1.318;2023-04-06T08:11:54;32;28;
47705;PMS5003;33471;52.104;1.318;2023-04-06T08:14:21;20;18;
47705;PMS5003;33471;52.104;1.318;2023-04-06T08:16:48;16;16;
47705;PMS5003;33471;52.104;1.318;2023-04-06T08:19:16;19;19;
47705;PMS5003;33471;52.104;1.318;2023-04-06T08:21:43;19;18;
47705;PMS5003;33471;52.104;1.318;2023-04-06T08:24:10;26;24;
47705;PMS5003;33471;52.104;1.318;2023-04-06T08:26:37;17;17;
47705;PMS5003;33471;52.104;1.318;2023-04-06T08:29:05;16;16;
47705;PMS5003;33471;52.104;1.318;2023-04-06T08:31:32;17;15;
47705;PMS5003;33471;52.104;1.318;2023-04-06T08:34:00;21;19;
47705;PMS5003;33471;52.104;1.318;2023-04-06T08:36:28;18;15;
47705;PMS5003;33471;52.104;1.318;2023-04-06T08:38:55;20;19;
47705;PMS5003;33471;52.104;1.318;2023-04-06T08:41:22;19;18;
47705;PMS5003;33471;52.104;1.318;2023-04-06T08:43:51;16;15;
47705;PMS5003;33471;52.104;1.318;2023-04-06T08:46:23;15;13;
47705;PMS5003;33471;52.104;1.318;2023-04-06T08:48:50;21;17;
47705;PMS5003;33471;52.104;1.318;2023-04-06T08:51:18;19;17;
47705;PMS5003;33471;52.104;1.318;2023-04-06T08:53:45;13;12;
47705;PMS5003;33471;52.104;1.318;2023-04-06T08:56:13;19;16;
47705;PMS5003;33471;52.104;1.318;2023-04-06T08:58:41;16;15;
47705;PMS5003;33471;52.104;1.318;2023-04-06T09:01:11;15;15;
47705;PMS5003;33471;52.104;1.318;2023-04-06T09:03:39;17;15;
47705;PMS5003;33471;52.104;1.318;2023-04-06T09:06:07;23;20;
47705;PMS5003;33471;52.104;1.318;2023-04-06T09:08:35;20;19;
47705;PMS5003;33471;52.104;1.318;2023-04-06T09:11:05;14;12;
47705;PMS5003;33471;52.104;1.318;2023-04-06T09:13:44;15;12;
47705;PMS5003;33471;52.104;1.318;2023-04-06T09:16:12;14;14;
47705;PMS5003;33471;52.104;1.318;2023-04-06T09:18:39;13;11;
47705;PMS5003;33471;52.104;1.318;2023-04-06T09:21:07;9;9;
47705;PMS5003;33471;52.104;1.318;2023-04-06T09:23:35;10;10;
47705;PMS5003;33471;52.104;1.318;2023-04-06T09:26:05;16;11;
47705;PMS5003;33471;52.104;1.318;2023-04-06T09:28:42;10;9;
47705;PMS5003;33471;52.104;1.318;2023-04-06T09:31:11;11;10;
47705;PMS5003;33471;52.104;1.318;2023-04-06T09:33:40;7;7;
47705;PMS5003;33471;52.104;1.318;2023-04-06T09:36:10;13;11;
47705;PMS5003;33471;52.104;1.318;2023-04-06T09:38:38;11;9;
47705;PMS5003;33471;52.104;1.318;2023-04-06T09:41:20;9;9;
47705;PMS5003;33471;52.104;1.318;2023-04-06T09:43:49;16;15;
47705;PMS5003;33471;52.104;1.318;2023-04-06T09:46:18;8;7;
47705;PMS5003;33471;52.104;1.318;2023-04-06T09:48:47;15;15;
47705;PMS5003;33471;52.104;1.318;2023-04-06T09:51:16;10;9;
47705;PMS5003;33471;52.104;1.318;2023-04-06T09:53:47;6;6;
47705;PMS5003;33471;52.104;1.318;2023-04-06T09:56:19;7;7;
47705;PMS5003;33471;52.104;1.318;2023-04-06T09:58:52;8;8;
47705;PMS5003;33471;52.104;1.318;2023-04-06T10:01:27;7;7;
47705;PMS5003;33471;52.104;1.318;2023-04-06T10:04:00;8;7;
47705;PMS5003;33471;52.104;1.318;2023-04-06T10:06:39;6;6;
47705;PMS5003;33471;52.104;1.318;2023-04-06T10:09:07;10;9;
47705;PMS5003;33471;52.104;1.318;2023-04-06T10:11:35;6;6;
47705;PMS5003;33471;52.104;1.318;2023-04-06T10:14:03;7;7;
47705;PMS5003;33471;52.104;1.318;2023-04-06T10:16:30;12;12;
47705;PMS5003;33471;52.104;1.318;2023-04-06T10:19:00;7;7;
47705;PMS5003;33471;52.104;1.318;2023-04-06T10:21:33;7;7;
47705;PMS5003;33471;52.104;1.318;2023-04-06T10:24:02;9;8;
47705;PMS5003;33471;52.104;1.318;2023-04-06T10:26:35;9;9;
47705;PMS5003;33471;52.104;1.318;2023-04-06T10:29:02;7;7;
47705;PMS5003;33471;52.104;1.318;2023-04-06T10:31:30;6;6;
47705;PMS5003;33471;52.104;1.318;2023-04-06T10:33:58;8;7;
47705;PMS5003;33471;52.104;1.318;2023-04-06T10:36:27;7;7;
47705;PMS5003;33471;52.104;1.318;2023-04-06T10:38:59;9;7;
47705;PMS5003;33471;52.104;1.318;2023-04-06T10:41:32;10;10;
47705;PMS5003;33471;52.104;1.318;2023-04-06T10:44:01;9;9;
47705;PMS5003;33471;52.104;1.318;2023-04-06T10:46:30;14;10;
47705;PMS5003;33471;52.104;1.318;2023-04-06T10:49:09;7;6;
47705;PMS5003;33471;52.104;1.318;2023-04-06T10:51:37;6;6;
47705;PMS5003;33471;52.104;1.318;2023-04-06T10:54:06;10;8;
47705;PMS5003;33471;52.104;1.318;2023-04-06T10:56:35;7;7;
47705;PMS5003;33471;52.104;1.318;2023-04-06T10:59:04;7;7;
47705;PMS5003;33471;52.104;1.318;2023-04-06T11:01:32;8;8;
47705;PMS5003;33471;52.104;1.318;2023-04-06T11:04:01;10;10;
47705;PMS5003;33471;52.104;1.318;2023-04-06T11:06:29;10;10;
47705;PMS5003;33471;52.104;1.318;2023-04-06T11:08:57;13;13;
47705;PMS5003;33471;52.104;1.318;2023-04-06T11:11:25;8;8;
47705;PMS5003;33471;52.104;1.318;2023-04-06T11:13:53;7;5;
47705;PMS5003;33471;52.104;1.318;2023-04-06T11:16:22;7;7;
47705;PMS5003;33471;52.104;1.318;2023-04-06T11:18:52;14;12;
47705;PMS5003;33471;52.104;1.318;2023-04-06T11:21:38;7;7;
47705;PMS5003;33471;52.104;1.318;2023-04-06T11:24:07;6;6;
47705;PMS5003;33471;52.104;1.318;2023-04-06T11:26:38;9;9;
47705;PMS5003;33471;52.104;1.318;2023-04-06T11:29:05;10;10;
47705;PMS5003;33471;52.104;1.318;2023-04-06T11:31:37;11;10;
47705;PMS5003;33471;52.104;1.318;2023-04-06T11:34:10;8;7;
47705;PMS5003;33471;52.104;1.318;2023-04-06T11:36:39;6;6;
47705;PMS5003;33471;52.104;1.318;2023-04-06T11:39:07;5;5;
47705;PMS5003;33471;52.104;1.318;2023-04-06T11:41:35;6;6;
47705;PMS5003;33471;52.104;1.318;2023-04-06T11:44:02;1;1;
47705;PMS5003;33471;52.104;1.318;2023-04-06T11:46:29;3;3;
47705;PMS5003;33471;52.104;1.318;2023-04-06T11:48:58;4;4;
47705;PMS5003;33471;52.104;1.318;2023-04-06T11:51:26;6;4;
47705;PMS5003;33471;52.104;1.318;2023-04-06T11:53:53;3;3;
47705;PMS5003;33471;52.104;1.318;2023-04-06T11:56:24;6;6;
47705;PMS5003;33471;52.104;1.318;2023-04-06T11:58:52;5;5;
47705;PMS5003;33471;52.104;1.318;2023-04-06T12:01:21;4;4;
47705;PMS5003;33471;52.104;1.318;2023-04-06T12:03:49;4;4;
47705;PMS5003;33471;52.104;1.318;2023-04-06T12:06:17;5;5;
47705;PMS5003;33471;52.104;1.318;2023-04-06T12:08:44;5;5;
47705;PMS5003;33471;52.104;1.318;2023-04-06T12:11:12;4;4;
47705;PMS5003;33471;52.104;1.318;2023-04-06T12:13:39;5;5;
47705;PMS5003;33471;52.104;1.318;2023-04-06T12:16:07;5;3;
47705;PMS5003;33471;52.104;1.318;2023-04-06T12:18:34;4;4;
47705;PMS5003;33471;52.104;1.318;2023-04-06T12:21:01;3;3;
47705;PMS5003;33471;52.104;1.318;2023-04-06T12:23:28;3;2;
47705;PMS5003;33471;52.104;1.318;2023-04-06T12:25:55;9;8;
47705;PMS5003;33471;52.104;1.318;2023-04-06T12:28:22;2;2;
47705;PMS5003;33471;52.104;1.318;2023-04-06T12:30:50;2;2;
47705;PMS5003;33471;52.104;1.318;2023-04-06T12:33:17;3;2;
47705;PMS5003;33471;52.104;1.318;2023-04-06T12:35:44;1;1;
47705;PMS5003;33471;52.104;1.318;2023-04-06T12:38:11;2;2;
47705;PMS5003;33471;52.104;1.318;2023-04-06T12:40:38;1;1;
47705;PMS5003;33471;52.104;1.318;2023-04-06T12:43:05;0;0;
47705;PMS5003;33471;52.104;1.318;2023-04-06T12:45:32;1;1;
47705;PMS5003;33471;52.104;1.318;2023-04-06T12:47:59;2;2;
47705;PMS5003;33471;52.104;1.318;2023-04-06T12:50:26;2;1;
47705;PMS5003;33471;52.104;1.318;2023-04-06T12:52:53;2;0;
47705;PMS5003;33471;52.104;1.318;2023-04-06T12:55:20;1;1;
47705;PMS5003;33471;52.104;1.318;2023-04-06T12:57:48;1;1;
47705;PMS5003;33471;52.104;1.318;2023-04-06T13:00:15;1;1;
47705;PMS5003;33471;52.104;1.318;2023-04-06T13:02:42;1;1;
47705;PMS5003;33471;52.104;1.318;2023-04-06T13:05:10;1;1;
47705;PMS5003;33471;52.104;1.318;2023-04-06T13:07:37;1;1;
47705;PMS5003;33471;52.104;1.318;2023-04-06T13:10:04;0;0;
47705;PMS5003;33471;52.104;1.318;2023-04-06T13:12:31;1;1;
47705;PMS5003;33471;52.104;1.318;2023-04-06T13:14:59;1;1;
47705;PMS5003;33471;52.104;1.318;2023-04-06T13:17:27;1;1;
47705;PMS5003;33471;52.104;1.318;2023-04-06T13:19:54;0;0;
47705;PMS5003;33471;52.104;1.318;2023-04-06T13:22:21;0;0;
47705;PMS5003;33471;52.104;1.318;2023-04-06T13:24:48;1;1;
47705;PMS5003;33471;52.104;1.318;2023-04-06T13:27:15;1;1;
47705;PMS5003;33471;52.104;1.318;2023-04-06T13:29:42;4;4;
47705;PMS5003;33471;52.104;1.318;2023-04-06T13:32:10;1;1;
47705;PMS5003;33471;52.104;1.318;2023-04-06T13:34:37;1;1;
47705;PMS5003;33471;52.104;1.318;2023-04-06T13:37:05;7;7;
47705;PMS5003;33471;52.104;1.318;2023-04-06T13:39:32;7;7;
47705;PMS5003;33471;52.104;1.318;2023-04-06T13:41:59;3;3;
47705;PMS5003;33471;52.104;1.318;2023-04-06T13:44:27;5;4;
47705;PMS5003;33471;52.104;1.318;2023-04-06T13:46:55;3;3;
47705;PMS5003;33471;52.104;1.318;2023-04-06T13:49:22;6;4;
47705;PMS5003;33471;52.104;1.318;2023-04-06T13:51:49;4;4;
47705;PMS5003;33471;52.104;1.318;2023-04-06T13:54:16;8;5;
47705;PMS5003;33471;52.104;1.318;2023-04-06T13:56:43;6;6;
47705;PMS5003;33471;52.104;1.318;2023-04-06T13:59:11;4;4;
47705;PMS5003;33471;52.104;1.318;2023-04-06T14:01:38;5;5;
47705;PMS5003;33471;52.104;1.318;2023-04-06T14:04:05;6;6;
47705;PMS5003;33471;52.104;1.318;2023-04-06T14:06:32;5;4;
47705;PMS5003;33471;52.104;1.318;2023-04-06T14:08:59;6;6;
47705;PMS5003;33471;52.104;1.318;2023-04-06T14:11:27;4;4;
47705;PMS5003;33471;52.104;1.318;2023-04-06T14:13:55;13;12;
47705;PMS5003;33471;52.104;1.318;2023-04-06T14:16:22;6;6;
47705;PMS5003;33471;52.104;1.318;2023-04-06T14:18:50;8;8;
47705;PMS5003;33471;52.104;1.318;2023-04-06T14:21:17;7;7;
47705;PMS5003;33471;52.104;1.318;2023-04-06T14:23:44;8;8;
47705;PMS5003;33471;52.104;1.318;2023-04-06T14:26:11;7;7;
47705;PMS5003;33471;52.104;1.318;2023-04-06T14:28:38;7;6;
47705;PMS5003;33471;52.104;1.318;2023-04-06T14:31:09;9;8;
47705;PMS5003;33471;52.104;1.318;2023-04-06T14:33:37;4;4;
47705;PMS5003;33471;52.104;1.318;2023-04-06T14:36:06;6;6;
47705;PMS5003;33471;52.104;1.318;2023-04-06T14:38:34;6;6;
47705;PMS5003;33471;52.104;1.318;2023-04-06T14:41:01;6;4;
47705;PMS5003;33471;52.104;1.318;2023-04-06T14:43:28;4;4;
47705;PMS5003;33471;52.104;1.318;2023-04-06T14:45:59;3;3;
47705;PMS5003;33471;52.104;1.318;2023-04-06T14:48:27;4;4;
47705;PMS5003;33471;52.104;1.318;2023-04-06T14:50:54;5;4;
47705;PMS5003;33471;52.104;1.318;2023-04-06T14:53:22;5;5;
47705;PMS5003;33471;52.104;1.318;2023-04-06T14:55:49;2;2;
47705;PMS5003;33471;52.104;1.318;2023-04-06T14:58:16;3;2;
47705;PMS5003;33471;52.104;1.318;2023-04-06T15:00:44;2;2;
47705;PMS5003;33471;52.104;1.318;2023-04-06T15:03:11;2;2;
47705;PMS5003;33471;52.104;1.318;2023-04-06T15:05:38;4;4;
47705;PMS5003;33471;52.104;1.318;2023-04-06T15:08:06;2;2;
47705;PMS5003;33471;52.104;1.318;2023-04-06T15:10:34;1;1;
47705;PMS5003;33471;52.104;1.318;2023-04-06T15:13:02;1;1;
47705;PMS5003;33471;52.104;1.318;2023-04-06T15:15:29;3;3;
47705;PMS5003;33471;52.104;1.318;2023-04-06T15:17:56;3;3;
47705;PMS5003;33471;52.104;1.318;2023-04-06T15:20:23;1;1;
47705;PMS5003;33471;52.104;1.318;2023-04-06T15:22:50;3;3;
47705;PMS5003;33471;52.104;1.318;2023-04-06T15:25:17;2;2;
47705;PMS5003;33471;52.104;1.318;2023-04-06T15:27:44;1;1;
47705;PMS5003;33471;52.104;1.318;2023-04-06T15:30:11;3;3;
47705;PMS5003;33471;52.104;1.318;2023-04-06T15:32:39;3;3;
47705;PMS5003;33471;52.104;1.318;2023-04-06T15:35:09;4;4;
47705;PMS5003;33471;52.104;1.318;2023-04-06T15:37:37;3;3;
47705;PMS5003;33471;52.104;1.318;2023-04-06T15:40:05;2;2;
47705;PMS5003;33471;52.104;1.318;2023-04-06T15:42:33;1;1;
47705;PMS5003;33471;52.104;1.318;2023-04-06T15:45:00;2;2;
47705;PMS5003;33471;52.104;1.318;2023-04-06T15:47:28;2;2;
47705;PMS5003;33471;52.104;1.318;2023-04-06T15:49:55;3;3;
47705;PMS5003;33471;52.104;1.318;2023-04-06T15:52:22;3;3;
47705;PMS5003;33471;52.104;1.318;2023-04-06T15:54:49;3;3;
47705;PMS5003;33471;52.104;1.318;2023-04-06T15:57:16;7;6;
47705;PMS5003;33471;52.104;1.318;2023-04-06T15:59:43;6;6;
47705;PMS5003;33471;52.104;1.318;2023-04-06T16:02:10;3;3;
47705;PMS5003;33471;52.104;1.318;2023-04-06T16:04:37;2;2;
47705;PMS5003;33471;52.104;1.318;2023-04-06T16:07:04;4;2;
47705;PMS5003;33471;52.104;1.318;2023-04-06T16:09:31;5;5;
47705;PMS5003;33471;52.104;1.318;2023-04-06T16:11:59;4;3;
47705;PMS5003;33471;52.104;1.318;2023-04-06T16:14:26;4;2;
47705;PMS5003;33471;52.104;1.318;2023-04-06T16:16:53;4;2;
47705;PMS5003;33471;52.104;1.318;2023-04-06T16:19:21;2;2;
47705;PMS5003;33471;52.104;1.318;2023-04-06T16:21:47;5;5;
47705;PMS5003;33471;52.104;1.318;2023-04-06T16:24:15;3;3;
47705;PMS5003;33471;52.104;1.318;2023-04-06T16:26:42;2;2;
47705;PMS5003;33471;52.104;1.318;2023-04-06T16:29:09;6;3;
47705;PMS5003;33471;52.104;1.318;2023-04-06T16:31:37;2;2;
47705;PMS5003;33471;52.104;1.318;2023-04-06T16:34:04;9;8;